Latest Coastal Weather Observations for Yeppoon

IDQ60701

Issued at 7:31 pm EST Sunday 24 May 2015 (issued every 10 minutes, with the page automatically refreshed every 10 minutes)

About coastal observations | Map of coastal stations | Coastal observations for QLD | Marine services | Other Formats
Station Details ID: 033294 Name: YEPPOON THE ESPLANADE Lat: -23.14 Lon: 150.75 Height: 5.5 m
Data from the previous 72 hours. | See also: Recent months at Yeppoon
Date/Time
EST
Temp

°C
Wind Pressure Rain
since 9am
mm
Weather Cloud Vis
km
Sea
Height
m
Swell
Dir
 
Speed
knots
Gust
knots
hPa Trend Height
m
Period
s
Dir
24/07:30pm 21.3 ESE 12 20 1025.8 - 0.0 - - - - - - -
24/07:00pm 21.4 ESE 11 19 1025.5 - 0.0 - - - - - - -
24/06:30pm 21.4 ESE 12 17 1025.3 - 0.0 - - - - - - -
24/06:00pm 21.6 ESE 13 19 1025.1 - 0.0 - - - - - - -
24/05:30pm 21.6 ESE 12 20 1024.9 - 0.0 - - - - - - -
24/05:00pm 21.7 SE 11 19 1024.5 - 0.0 - - - - - - -
24/04:30pm 21.9 ESE 11 19 1024.3 - 0.0 - - - - - - -
24/04:00pm 22.2 ESE 13 19 1023.9 - 0.0 - - - - - - -
24/03:30pm 22.5 ESE 11 15 1023.7 - 0.0 - - - - - - -
24/03:00pm 22.5 ESE 12 18 1023.7 - 0.0 - - - - - - -
24/02:30pm 22.6 ESE 14 22 1023.8 - 0.0 - - - - - - -
24/02:00pm 23.2 ESE 13 20 1023.8 - 0.0 - - - - - - -
24/01:30pm 23.2 ESE 15 22 1023.9 - 0.0 - - - - - - -
24/01:00pm 22.9 ESE 13 19 1024.0 - 0.0 - - - - - - -
24/12:30pm 22.7 ESE 13 21 1024.3 - 0.0 - - - - - - -
24/12:00pm 22.8 SE 13 21 1024.8 - 0.0 - - - - - - -
24/11:30am 22.3 ESE 14 19 1025.1 - 0.0 - - - - - - -
24/11:00am 21.9 ESE 14 19 1025.3 - 0.0 - - - - - - -
24/10:30am 21.9 SE 13 20 1025.3 - 0.0 - - - - - - -
24/10:00am 21.4 SE 13 21 1025.5 - 0.0 - - - - - - -
24/09:30am 20.8 SE 14 21 1025.3 - 0.0 - - - - - - -
24/09:00am 20.4 SE 12 21 1025.2 - 0.0 - - - - - - -
24/08:30am 19.7 SE 10 15 1024.8 - 0.0 - - - - - - -
24/08:00am 19.1 SE 11 15 1024.6 - 0.0 - - - - - - -
24/07:30am 17.7 S 6 10 1024.4 - 0.0 - - - - - - -
24/07:00am 16.4 S 6 9 1024.0 - 0.0 - - - - - - -
24/06:30am 15.9 S 7 9 1023.5 - 0.0 - - - - - - -
24/06:00am 15.7 S 7 11 1023.2 - 0.0 - - - - - - -
24/05:30am 15.8 S 6 8 1022.9 - 0.0 - - - - - - -
24/05:00am 15.9 S 7 10 1022.7 - 0.0 - - - - - - -
24/04:30am 16.3 S 7 11 1022.5 - 0.0 - - - - - - -
24/04:00am 16.7 S 7 10 1022.4 - 0.0 - - - - - - -
24/03:30am 17.7 S 6 10 1022.5 - 0.0 - - - - - - -
24/03:00am 18.4 SE 10 19 1022.2 - 0.0 - - - - - - -
24/02:30am 18.5 SE 11 16 1022.2 - 0.0 - - - - - - -
24/02:00am 18.5 SSE 11 16 1022.2 - 0.0 - - - - - - -
24/01:30am 18.6 SSE 10 13 1022.4 - 0.0 - - - - - - -
24/01:00am 18.8 SSE 9 14 1022.4 - 0.0 - - - - - - -
24/12:30am 19.1 SSE 10 17 1022.6 - 0.0 - - - - - - -
24/12:00am 19.3 SE 12 18 1022.5 - 0.0 - - - - - - -
 
Date/Time
EST
Temp

°C
Wind Pressure Rain
since 9am
mm
Weather Cloud Vis
km
Sea
Height
m
Swell
Dir
 
Speed
knots
Gust
knots
hPa Trend Height
m
Period
s
Dir
23/11:30pm 19.4 SE 12 17 1022.7 - 0.0 - - - - - - -
23/11:00pm 19.8 SE 13 20 1022.8 - 0.0 - - - - - - -
23/10:30pm 19.9 SE 11 17 1023.0 - 0.0 - - - - - - -
23/10:00pm 20.1 SE 12 19 1022.8 - 0.0 - - - - - - -
23/09:30pm 20.4 SE 11 17 1022.7 - 0.0 - - - - - - -
23/09:00pm 20.0 SE 7 10 1022.6 - 0.0 - - - - - - -
23/08:30pm 20.3 SE 7 10 1022.6 - 0.0 - - - - - - -
23/08:00pm 20.5 SE 7 11 1022.4 - 0.0 - - - - - - -
23/07:30pm 20.4 SE 6 10 1021.9 - 0.0 - - - - - - -
23/07:00pm 20.2 SE 5 10 1021.7 - 0.0 - - - - - - -
23/06:30pm 20.1 SSE 5 7 1021.4 - 0.0 - - - - - - -
23/06:00pm 20.6 SSE 6 9 1021.2 - 0.0 - - - - - - -
23/05:30pm 21.2 ESE 7 11 1021.1 - 0.0 - - - - - - -
23/05:00pm 21.2 SE 7 14 1021.1 - 0.0 - - - - - - -
23/04:30pm 21.4 ESE 8 11 1020.9 - 0.0 - - - - - - -
23/04:00pm 21.6 ESE 9 12 1020.7 - 0.0 - - - - - - -
23/03:30pm 21.9 ESE 9 14 1020.7 - 0.0 - - - - - - -
23/03:00pm 21.9 ESE 9 17 1020.6 - 0.0 - - - - - - -
23/02:30pm 21.6 ESE 9 14 1020.5 - 0.0 - - - - - - -
23/02:00pm 21.5 ESE 9 14 1020.7 - 0.0 - - - - - - -
23/01:30pm 20.9 ESE 11 15 1020.8 - 0.0 - - - - - - -
23/01:00pm 21.6 ESE 12 17 1021.1 - 0.0 - - - - - - -
23/12:30pm 20.8 ESE 12 16 1021.4 - 0.0 - - - - - - -
23/12:00pm 20.5 SE 10 15 1021.9 - 0.0 - - - - - - -
23/11:30am 19.9 SE 8 11 1022.3 - 0.0 - - - - - - -
23/11:00am 18.8 SE 9 13 1022.5 - 0.0 - - - - - - -
23/10:30am 18.7 ESE 10 15 1022.5 - 0.0 - - - - - - -
23/10:00am 18.7 SE 10 14 1022.5 - 0.0 - - - - - - -
23/09:30am 18.1 SE 10 15 1022.5 - 0.0 - - - - - - -
23/09:00am 17.5 SSE 7 10 1022.1 - 0.0 - - - - - - -
23/08:30am 16.0 S 7 11 1021.9 - 0.0 - - - - - - -
23/08:00am 13.2 WSW 4 7 1021.6 - 0.0 - - - - - - -
23/07:30am 11.7 WSW 7 9 1021.3 - 0.0 - - - - - - -
23/07:00am 10.7 WSW 3 6 1021.0 - 0.0 - - - - - - -
23/06:30am 10.2 WSW 7 9 1020.7 - 0.0 - - - - - - -
23/06:00am 10.4 W 7 9 1020.2 - 0.0 - - - - - - -
23/05:30am 11.0 W 7 9 1020.0 - 0.0 - - - - - - -
23/05:00am 11.5 WSW 6 7 1019.8 - 0.0 - - - - - - -
23/04:30am 11.6 W 7 8 1019.7 - 0.0 - - - - - - -
23/04:00am 12.4 W 6 8 1019.8 - 0.0 - - - - - - -
23/03:30am 13.0 SW 6 9 1019.6 - 0.0 - - - - - - -
23/03:00am 12.6 WSW 5 7 1020.2 - 0.0 - - - - - - -
23/02:30am 12.5 WSW 5 8 1020.1 - 0.0 - - - - - - -
23/02:00am 13.3 SW 6 8 1020.4 - 0.0 - - - - - - -
23/01:30am 13.5 WSW 5 6 1020.7 - 0.0 - - - - - - -
23/01:00am 13.9 SSW 6 8 1020.9 - 0.0 - - - - - - -
23/12:30am 14.2 SSW 11 15 1020.8 - 0.0 - - - - - - -
23/12:00am 14.4 SSW 9 15 1021.2 - 0.0 - - - - - - -
 
Date/Time
EST
Temp

°C
Wind Pressure Rain
since 9am
mm
Weather Cloud Vis
km
Sea
Height
m
Swell
Dir
 
Speed
knots
Gust
knots
hPa Trend Height
m
Period
s
Dir
22/11:30pm 14.6 SSW 10 15 1021.5 - 0.0 - - - - - - -
22/11:00pm 14.9 SSW 9 18 1021.8 - 0.0 - - - - - - -
22/10:30pm 15.1 SSW 10 15 1021.9 - 0.0 - - - - - - -
22/10:00pm 15.3 SSW 7 12 1021.8 - 0.0 - - - - - - -
22/09:30pm 15.7 SSW 9 13 1021.6 - 0.0 - - - - - - -
22/09:00pm 15.5 SW 7 11 1021.3 - 0.0 - - - - - - -
22/08:30pm 15.3 SSW 5 7 1021.0 - 0.0 - - - - - - -
22/08:00pm 15.9 SW 5 6 1020.8 - 0.0 - - - - - - -
22/07:30pm 16.6 SSW 5 7 1020.5 - 0.0 - - - - - - -
22/07:00pm 17.8 SSW 7 9 1020.0 - 0.0 - - - - - - -
22/06:30pm 17.1 SSW 7 8 1019.4 - 0.0 - - - - - - -
22/06:00pm 18.6 SSW 5 7 1019.2 - 0.0 - - - - - - -
22/05:30pm 19.3 SSW 7 9 1018.4 - 0.0 - - - - - - -
22/05:00pm 21.0 SSW 8 11 1017.9 - 0.0 - - - - - - -
22/04:30pm 22.1 SSW 11 16 1017.4 - 0.0 - - - - - - -
22/04:00pm 22.9 SSW 8 14 1017.2 - 0.0 - - - - - - -
22/03:30pm 23.2 WSW 11 15 1016.9 - 0.0 - - - - - - -
22/03:00pm 23.4 SW 10 16 1016.5 - 0.0 - - - - - - -
22/02:30pm 23.6 SW 11 18 1016.6 - 0.0 - - - - - - -
22/02:00pm 23.8 SSW 8 14 1016.8 - 0.0 - - - - - - -
22/01:30pm 23.6 SSW 10 15 1017.1 - 0.0 - - - - - - -
22/01:00pm 23.8 SSW 10 15 1017.4 - 0.0 - - - - - - -
22/12:30pm 23.3 SW 10 16 1017.7 - 0.0 - - - - - - -
22/12:00pm 23.0 SW 11 18 1018.1 - 0.0 - - - - - - -
22/11:30am 23.2 SW 10 15 1018.3 - 0.0 - - - - - - -
22/11:00am 22.5 SW 6 10 1018.8 - 0.0 - - - - - - -
22/10:30am 22.5 SSW 7 11 1019.1 - 0.0 - - - - - - -
22/10:00am 21.7 SSW 7 11 1019.3 - 0.0 - - - - - - -
22/09:30am 20.9 S 9 15 1019.4 - 0.0 - - - - - - -
22/09:00am 20.2 S 10 15 1019.2 - 0.0 - - - - - - -
22/08:30am 19.8 SSW 9 13 1018.9 - 0.0 - - - - - - -
22/08:00am 19.5 WSW 7 9 1018.8 - 0.0 - - - - - - -
22/07:30am 19.0 WSW 7 8 1018.5 - 0.0 - - - - - - -
22/07:00am 19.0 SW 6 9 1018.0 - 0.0 - - - - - - -
22/06:30am 18.9 WSW 6 8 1017.8 - 0.0 - - - - - - -
22/06:00am 18.9 W 5 7 1017.5 - 0.0 - - - - - - -
22/05:30am 19.2 WSW 4 6 1016.9 - 0.0 - - - - - - -
22/05:00am 19.3 WSW 6 7 1016.5 - 0.0 - - - - - - -
22/04:30am 19.4 WSW 5 8 1016.2 - 0.0 - - - - - - -
22/04:00am 19.1 WSW 7 10 1016.2 - 0.0 - - - - - - -
22/03:30am 18.8 W 5 6 1016.2 - 0.0 - - - - - - -
22/03:00am 18.7 WSW 7 9 1016.3 - 0.0 - - - - - - -
22/02:30am 19.0 WSW 8 11 1016.4 - 0.0 - - - - - - -
22/02:00am 19.0 WSW 6 8 1016.5 - 0.0 - - - - - - -
22/01:30am 19.0 SW 7 11 1016.7 - 0.0 - - - - - - -
22/01:00am 19.2 W 8 11 1016.9 - 0.0 - - - - - - -
22/12:30am 20.4 W 7 9 1017.2 - 0.0 - - - - - - -
22/12:00am 21.2 WSW 9 13 1017.5 - 0.0 - - - - - - -
 
Date/Time
EST
Temp

°C
Wind Pressure Rain
since 9am
mm
Weather Cloud Vis
km
Sea
Height
m
Swell
Dir
 
Speed
knots
Gust
knots
hPa Trend Height
m
Period
s
Dir
21/11:30pm 22.4 W 7 10 1017.5 - 0.0 - - - - - - -
21/11:00pm 22.7 WSW 5 7 1017.4 - 0.0 - - - - - - -
21/10:30pm 23.1 NNW 5 9 1017.0 - 0.0 - - - - - - -
21/10:00pm 23.0 NNW 5 8 1017.2 - 0.0 - - - - - - -
21/09:30pm 22.9 N 8 11 1017.1 - 0.0 - - - - - - -
21/09:00pm 22.7 N 9 12 1017.0 - 0.0 - - - - - - -
21/08:30pm 22.9 N 9 10 1017.1 - 0.0 - - - - - - -
21/08:00pm 23.1 N 8 10 1017.0 - 0.0 - - - - - - -

Other Formats:

Comma delimited format used in spreadsheet applications
http://www.bom.gov.au/fwo/IDQ60701/IDQ60701.94373.axf

JavaScript Object Notation format (JSON) in row-major order
http://www.bom.gov.au/fwo/IDQ60701/IDQ60701.94373.json